sensor_id;sensor_type;location;lat;lon;timestamp;pressure;altitude;pressure_sealevel;temperature;humidity
3524;BME280;1776;53.330;11.498;2022-07-24T00:01:28;53723.94;;;-147.39;50.62
3524;BME280;1776;53.330;11.498;2022-07-24T00:03:54;53693.22;;;-147.39;50.66
3524;BME280;1776;53.330;11.498;2022-07-24T00:06:19;53744.44;;;-147.39;50.64
3524;BME280;1776;53.330;11.498;2022-07-24T00:08:44;53719.84;;;-147.39;50.89
3524;BME280;1776;53.330;11.498;2022-07-24T00:11:10;53707.56;;;-147.39;50.96
3524;BME280;1776;53.330;11.498;2022-07-24T00:13:35;53699.34;;;-147.39;50.98
3524;BME280;1776;53.330;11.498;2022-07-24T00:16:00;53701.41;;;-147.39;51.01
3524;BME280;1776;53.330;11.498;2022-07-24T00:18:25;53721.88;;;-147.39;51.02
3524;BME280;1776;53.330;11.498;2022-07-24T00:20:51;53693.22;;;-147.39;51.10
3524;BME280;1776;53.330;11.498;2022-07-24T00:23:16;53701.41;;;-147.39;51.05
3524;BME280;1776;53.330;11.498;2022-07-24T00:25:41;53732.13;;;-147.39;51.14
3524;BME280;1776;53.330;11.498;2022-07-24T00:28:07;53719.84;;;-147.39;51.37
3524;BME280;1776;53.330;11.498;2022-07-24T00:30:32;53773.09;;;-147.39;52.81
3524;BME280;1776;53.330;11.498;2022-07-24T00:32:57;53744.44;;;-147.39;52.56
3524;BME280;1776;53.330;11.498;2022-07-24T00:35:23;53736.22;;;-147.39;52.65
3524;BME280;1776;53.330;11.498;2022-07-24T00:37:48;53726.00;;;-147.39;52.16
3524;BME280;1776;53.330;11.498;2022-07-24T00:40:14;53738.28;;;-147.39;52.34
3524;BME280;1776;53.330;11.498;2022-07-24T00:42:41;53713.69;;;-147.39;52.31
3524;BME280;1776;53.330;11.498;2022-07-24T00:45:07;53705.50;;;-147.39;52.38
3524;BME280;1776;53.330;11.498;2022-07-24T00:47:32;53736.22;;;-147.39;52.55
3524;BME280;1776;53.330;11.498;2022-07-24T00:49:57;53728.03;;;-147.39;52.54
3524;BME280;1776;53.330;11.498;2022-07-24T00:52:23;53721.88;;;-147.39;52.42
3524;BME280;1776;53.330;11.498;2022-07-24T00:54:48;53666.56;;;-147.39;52.23
3524;BME280;1776;53.330;11.498;2022-07-24T00:57:13;53728.03;;;-147.39;52.72
3524;BME280;1776;53.330;11.498;2022-07-24T00:59:38;53736.22;;;-147.39;52.68
3524;BME280;1776;53.330;11.498;2022-07-24T01:02:04;53721.88;;;-147.39;52.60
3524;BME280;1776;53.330;11.498;2022-07-24T01:04:29;53717.78;;;-147.39;52.59
3524;BME280;1776;53.330;11.498;2022-07-24T01:06:54;53740.31;;;-147.39;52.67
3524;BME280;1776;53.330;11.498;2022-07-24T01:09:21;53756.72;;;-147.39;52.53
3524;BME280;1776;53.330;11.498;2022-07-24T01:11:47;53736.22;;;-147.39;52.78
3524;BME280;1776;53.330;11.498;2022-07-24T01:14:14;53762.88;;;-147.39;52.66
3524;BME280;1776;53.330;11.498;2022-07-24T01:16:40;53758.75;;;-147.39;52.71
3524;BME280;1776;53.330;11.498;2022-07-24T01:19:06;53736.22;;;-147.39;53.08
3524;BME280;1776;53.330;11.498;2022-07-24T01:21:31;53705.50;;;-147.39;52.86
3524;BME280;1776;53.330;11.498;2022-07-24T01:23:56;53750.56;;;-147.39;52.91
3524;BME280;1776;53.330;11.498;2022-07-24T01:26:22;53924.72;;;-147.39;52.95
3524;BME280;1776;53.330;11.498;2022-07-24T01:28:47;53734.19;;;-147.39;53.40
3524;BME280;1776;53.330;11.498;2022-07-24T01:31:12;53728.03;;;-147.39;53.45
3524;BME280;1776;53.330;11.498;2022-07-24T01:33:37;53744.44;;;-147.39;53.29
3524;BME280;1776;53.330;11.498;2022-07-24T01:36:03;53769.00;;;-147.39;53.17
3524;BME280;1776;53.330;11.498;2022-07-24T01:38:28;53760.81;;;-147.39;53.14
3524;BME280;1776;53.330;11.498;2022-07-24T01:40:54;53715.75;;;-147.39;52.84
3524;BME280;1776;53.330;11.498;2022-07-24T01:43:19;53721.88;;;-147.39;52.98
3524;BME280;1776;53.330;11.498;2022-07-24T01:45:44;53693.22;;;-147.39;52.97
3524;BME280;1776;53.330;11.498;2022-07-24T01:48:10;53752.63;;;-147.39;53.19
3524;BME280;1776;53.330;11.498;2022-07-24T01:50:36;53728.03;;;-147.39;52.59
3524;BME280;1776;53.330;11.498;2022-07-24T01:53:01;53738.28;;;-147.39;52.52
3524;BME280;1776;53.330;11.498;2022-07-24T01:55:27;53732.13;;;-147.39;52.02
3524;BME280;1776;53.330;11.498;2022-07-24T01:57:53;53728.03;;;-147.39;51.89
3524;BME280;1776;53.330;11.498;2022-07-24T02:00:18;53744.44;;;-147.39;52.25
3524;BME280;1776;53.330;11.498;2022-07-24T02:02:44;53736.22;;;-147.39;52.31
3524;BME280;1776;53.330;11.498;2022-07-24T02:05:11;53736.22;;;-147.39;53.29
3524;BME280;1776;53.330;11.498;2022-07-24T02:07:38;53758.75;;;-147.39;53.99
3524;BME280;1776;53.330;11.498;2022-07-24T02:10:04;53779.25;;;-147.39;54.94
3524;BME280;1776;53.330;11.498;2022-07-24T02:12:29;53920.63;;;-147.39;55.49
3524;BME280;1776;53.330;11.498;2022-07-24T02:14:54;53752.63;;;-147.39;55.02
3524;BME280;1776;53.330;11.498;2022-07-24T02:17:20;53752.63;;;-147.39;55.01
3524;BME280;1776;53.330;11.498;2022-07-24T02:19:45;53754.66;;;-147.39;55.03
3524;BME280;1776;53.330;11.498;2022-07-24T02:22:10;53740.31;;;-147.39;54.75
3524;BME280;1776;53.330;11.498;2022-07-24T02:24:36;53732.13;;;-147.39;54.25
3524;BME280;1776;53.330;11.498;2022-07-24T02:27:01;53728.03;;;-147.39;54.98
3524;BME280;1776;53.330;11.498;2022-07-24T02:29:26;53758.75;;;-147.39;55.16
3524;BME280;1776;53.330;11.498;2022-07-24T02:31:52;53775.16;;;-147.39;54.89
3524;BME280;1776;53.330;11.498;2022-07-24T02:34:17;53758.75;;;-147.39;54.90
3524;BME280;1776;53.330;11.498;2022-07-24T02:36:42;53756.72;;;-147.39;54.70
3524;BME280;1776;53.330;11.498;2022-07-24T02:39:08;53764.91;;;-147.39;54.58
3524;BME280;1776;53.330;11.498;2022-07-24T02:41:33;53775.16;;;-147.39;55.20
3524;BME280;1776;53.330;11.498;2022-07-24T02:43:58;53791.53;;;-147.39;55.15
3524;BME280;1776;53.330;11.498;2022-07-24T02:46:24;53769.00;;;-147.39;55.19
3524;BME280;1776;53.330;11.498;2022-07-24T02:48:49;53957.50;;;-147.39;54.88
3524;BME280;1776;53.330;11.498;2022-07-24T02:51:14;53779.25;;;-147.39;55.03
3524;BME280;1776;53.330;11.498;2022-07-24T02:53:40;53732.13;;;-147.39;54.86
3524;BME280;1776;53.330;11.498;2022-07-24T02:56:05;53791.53;;;-147.39;55.28
3524;BME280;1776;53.330;11.498;2022-07-24T02:58:31;53775.16;;;-147.39;55.31
3524;BME280;1776;53.330;11.498;2022-07-24T03:00:56;53820.22;;;-147.39;55.42
3524;BME280;1776;53.330;11.498;2022-07-24T03:03:22;53773.09;;;-147.39;55.47
3524;BME280;1776;53.330;11.498;2022-07-24T03:05:47;53736.22;;;-147.39;55.41
3524;BME280;1776;53.330;11.498;2022-07-24T03:08:12;53773.09;;;-147.39;55.50
3524;BME280;1776;53.330;11.498;2022-07-24T03:10:38;53756.72;;;-147.39;55.79
3524;BME280;1776;53.330;11.498;2022-07-24T03:13:03;53947.25;;;-147.39;57.49
3524;BME280;1776;53.330;11.498;2022-07-24T03:15:30;53795.66;;;-147.39;57.91
3524;BME280;1776;53.330;11.498;2022-07-24T03:17:56;53738.28;;;-147.39;57.65
3524;BME280;1776;53.330;11.498;2022-07-24T03:20:23;53861.19;;;-147.39;57.41
3524;BME280;1776;53.330;11.498;2022-07-24T03:22:49;53760.81;;;-147.39;56.84
3524;BME280;1776;53.330;11.498;2022-07-24T03:25:15;53781.31;;;-147.39;56.56
3524;BME280;1776;53.330;11.498;2022-07-24T03:27:41;53795.66;;;-147.39;56.54
3524;BME280;1776;53.330;11.498;2022-07-24T03:30:07;53869.41;;;-147.39;56.97
3524;BME280;1776;53.330;11.498;2022-07-24T03:32:33;53789.50;;;-147.39;56.52
3524;BME280;1776;53.330;11.498;2022-07-24T03:34:59;53781.31;;;-147.39;56.64
3524;BME280;1776;53.330;11.498;2022-07-24T03:37:24;53781.31;;;-147.39;56.60
3524;BME280;1776;53.330;11.498;2022-07-24T03:39:49;53785.41;;;-147.39;56.22
3524;BME280;1776;53.330;11.498;2022-07-24T03:42:15;53791.53;;;-147.39;56.13
3524;BME280;1776;53.330;11.498;2022-07-24T03:44:40;53779.25;;;-147.39;56.10
3524;BME280;1776;53.330;11.498;2022-07-24T03:47:06;53785.41;;;-147.39;56.25
3524;BME280;1776;53.330;11.498;2022-07-24T03:49:31;53793.59;;;-147.39;56.25
3524;BME280;1776;53.330;11.498;2022-07-24T03:51:57;53758.75;;;-147.39;56.39
3524;BME280;1776;53.330;11.498;2022-07-24T03:54:22;53771.06;;;-147.39;56.27
3524;BME280;1776;53.330;11.498;2022-07-24T03:56:48;53777.22;;;-147.39;56.46
3524;BME280;1776;53.330;11.498;2022-07-24T03:59:14;53795.66;;;-147.39;56.20
3524;BME280;1776;53.330;11.498;2022-07-24T04:01:39;53951.34;;;-147.39;57.35
3524;BME280;1776;53.330;11.498;2022-07-24T04:04:04;53760.81;;;-147.39;56.77
3524;BME280;1776;53.330;11.498;2022-07-24T04:06:32;53779.25;;;-147.39;56.29
3524;BME280;1776;53.330;11.498;2022-07-24T04:08:58;53803.84;;;-147.39;56.49
3524;BME280;1776;53.330;11.498;2022-07-24T04:11:24;53756.72;;;-147.39;56.12
3524;BME280;1776;53.330;11.498;2022-07-24T04:13:49;53777.22;;;-147.39;55.77
3524;BME280;1776;53.330;11.498;2022-07-24T04:16:15;53754.66;;;-147.39;55.79
3524;BME280;1776;53.330;11.498;2022-07-24T04:18:40;53785.41;;;-147.39;55.67
3524;BME280;1776;53.330;11.498;2022-07-24T04:21:05;53701.41;;;-147.39;55.54
3524;BME280;1776;53.330;11.498;2022-07-24T04:23:31;53773.09;;;-147.39;55.90
3524;BME280;1776;53.330;11.498;2022-07-24T04:25:56;53769.00;;;-147.39;55.67
3524;BME280;1776;53.330;11.498;2022-07-24T04:28:21;53900.13;;;-147.39;55.77
3524;BME280;1776;53.330;11.498;2022-07-24T04:30:47;53783.34;;;-147.39;55.46
3524;BME280;1776;53.330;11.498;2022-07-24T04:33:12;53777.22;;;-147.39;55.60
3524;BME280;1776;53.330;11.498;2022-07-24T04:35:37;53775.16;;;-147.39;55.55
3524;BME280;1776;53.330;11.498;2022-07-24T04:38:02;53826.38;;;-147.39;56.03
3524;BME280;1776;53.330;11.498;2022-07-24T04:40:28;53779.25;;;-147.39;56.31
3524;BME280;1776;53.330;11.498;2022-07-24T04:42:53;53773.09;;;-147.39;56.80
3524;BME280;1776;53.330;11.498;2022-07-24T04:45:18;53859.16;;;-147.39;56.80
3524;BME280;1776;53.330;11.498;2022-07-24T04:47:43;53787.44;;;-147.39;57.20
3524;BME280;1776;53.330;11.498;2022-07-24T04:50:09;53793.59;;;-147.39;57.59
3524;BME280;1776;53.330;11.498;2022-07-24T04:52:34;53769.00;;;-147.39;57.62
3524;BME280;1776;53.330;11.498;2022-07-24T04:55:00;53758.75;;;-147.39;56.85
3524;BME280;1776;53.330;11.498;2022-07-24T04:57:25;53779.25;;;-147.39;56.54
3524;BME280;1776;53.330;11.498;2022-07-24T04:59:50;53769.00;;;-147.39;56.65
3524;BME280;1776;53.330;11.498;2022-07-24T05:02:15;53769.00;;;-147.39;56.09
3524;BME280;1776;53.330;11.498;2022-07-24T05:04:41;53789.50;;;-147.39;56.64
3524;BME280;1776;53.330;11.498;2022-07-24T05:07:06;53781.31;;;-147.39;56.99
3524;BME280;1776;53.330;11.498;2022-07-24T05:09:31;53771.06;;;-147.39;56.54
3524;BME280;1776;53.330;11.498;2022-07-24T05:11:57;53756.72;;;-147.39;56.65
3524;BME280;1776;53.330;11.498;2022-07-24T05:14:22;53785.41;;;-147.39;57.61
3524;BME280;1776;53.330;11.498;2022-07-24T05:16:47;53777.22;;;-147.39;58.07
3524;BME280;1776;53.330;11.498;2022-07-24T05:19:13;53789.50;;;-147.39;58.56
3524;BME280;1776;53.330;11.498;2022-07-24T05:21:38;53750.56;;;-147.39;57.73
3524;BME280;1776;53.330;11.498;2022-07-24T05:24:04;53726.00;;;-147.39;58.05
3524;BME280;1776;53.330;11.498;2022-07-24T05:26:30;53809.97;;;-147.39;58.89
3524;BME280;1776;53.330;11.498;2022-07-24T05:29:00;53777.22;;;-147.39;58.25
3524;BME280;1776;53.330;11.498;2022-07-24T05:31:26;53769.00;;;-147.39;58.46
3524;BME280;1776;53.330;11.498;2022-07-24T05:33:52;53785.41;;;-147.39;58.59
3524;BME280;1776;53.330;11.498;2022-07-24T05:36:17;53769.00;;;-147.39;58.72
3524;BME280;1776;53.330;11.498;2022-07-24T05:38:43;53769.00;;;-147.39;58.46
3524;BME280;1776;53.330;11.498;2022-07-24T05:41:09;53752.63;;;-147.39;58.38
3524;BME280;1776;53.330;11.498;2022-07-24T05:43:34;53785.41;;;-147.39;58.65
3524;BME280;1776;53.330;11.498;2022-07-24T05:46:00;53740.31;;;-147.39;58.41
3524;BME280;1776;53.330;11.498;2022-07-24T05:48:25;53773.09;;;-147.39;58.64
3524;BME280;1776;53.330;11.498;2022-07-24T05:50:50;53742.38;;;-147.39;58.69
3524;BME280;1776;53.330;11.498;2022-07-24T05:53:15;53756.72;;;-147.39;58.65
3524;BME280;1776;53.330;11.498;2022-07-24T05:55:41;53758.75;;;-147.39;58.54
3524;BME280;1776;53.330;11.498;2022-07-24T05:58:06;53764.91;;;-147.39;58.56
3524;BME280;1776;53.330;11.498;2022-07-24T06:00:31;53779.25;;;-147.39;57.71
3524;BME280;1776;53.330;11.498;2022-07-24T06:02:56;53734.19;;;-147.39;57.81
3524;BME280;1776;53.330;11.498;2022-07-24T06:05:22;53785.41;;;-147.39;57.35
3524;BME280;1776;53.330;11.498;2022-07-24T06:07:47;53738.28;;;-147.39;57.28
3524;BME280;1776;53.330;11.498;2022-07-24T06:10:12;53742.38;;;-147.39;57.12
3524;BME280;1776;53.330;11.498;2022-07-24T06:12:38;53738.28;;;-147.39;56.46
3524;BME280;1776;53.330;11.498;2022-07-24T06:15:04;53738.28;;;-147.39;56.44
3524;BME280;1776;53.330;11.498;2022-07-24T06:17:29;53769.00;;;-147.39;56.12
3524;BME280;1776;53.330;11.498;2022-07-24T06:19:54;53723.94;;;-147.39;55.56
3524;BME280;1776;53.330;11.498;2022-07-24T06:22:19;53728.03;;;-147.39;54.87
3524;BME280;1776;53.330;11.498;2022-07-24T06:24:45;53703.44;;;-147.39;54.92
3524;BME280;1776;53.330;11.498;2022-07-24T06:27:10;53748.53;;;-147.39;54.61
3524;BME280;1776;53.330;11.498;2022-07-24T06:29:35;53730.09;;;-147.39;54.76
3524;BME280;1776;53.330;11.498;2022-07-24T06:32:01;53682.97;;;-147.39;54.52
3524;BME280;1776;53.330;11.498;2022-07-24T06:34:26;53670.69;;;-147.39;54.45
3524;BME280;1776;53.330;11.498;2022-07-24T06:36:51;53699.34;;;-147.39;54.30
3524;BME280;1776;53.330;11.498;2022-07-24T06:39:17;53687.06;;;-147.39;54.70
3524;BME280;1776;53.330;11.498;2022-07-24T06:41:42;53728.03;;;-147.39;54.46
3524;BME280;1776;53.330;11.498;2022-07-24T06:44:08;53713.69;;;-147.39;53.99
3524;BME280;1776;53.330;11.498;2022-07-24T06:46:33;53662.47;;;-147.39;54.11
3524;BME280;1776;53.330;11.498;2022-07-24T06:48:58;53726.00;;;-147.39;54.26
3524;BME280;1776;53.330;11.498;2022-07-24T06:51:24;53723.94;;;-147.39;54.11
3524;BME280;1776;53.330;11.498;2022-07-24T06:53:49;53738.28;;;-147.39;53.84
3524;BME280;1776;53.330;11.498;2022-07-24T06:56:15;53685.00;;;-147.39;53.63
3524;BME280;1776;53.330;11.498;2022-07-24T06:58:40;53726.00;;;-147.39;53.08
3524;BME280;1776;53.330;11.498;2022-07-24T07:01:05;53701.41;;;-147.39;53.03
3524;BME280;1776;53.330;11.498;2022-07-24T07:03:30;53666.56;;;-147.39;53.38
3524;BME280;1776;53.330;11.498;2022-07-24T07:05:56;53709.59;;;-147.39;52.80
3524;BME280;1776;53.330;11.498;2022-07-24T07:08:21;53674.78;;;-147.39;52.62
3524;BME280;1776;53.330;11.498;2022-07-24T07:10:46;53676.81;;;-147.39;52.20
3524;BME280;1776;53.330;11.498;2022-07-24T07:13:12;53689.13;;;-147.39;51.97
3524;BME280;1776;53.330;11.498;2022-07-24T07:15:37;53685.00;;;-147.39;52.01
3524;BME280;1776;53.330;11.498;2022-07-24T07:18:02;53658.38;;;-147.39;51.87
3524;BME280;1776;53.330;11.498;2022-07-24T07:20:28;53666.56;;;-147.39;51.81
3524;BME280;1776;53.330;11.498;2022-07-24T07:22:53;53678.88;;;-147.39;52.04
3524;BME280;1776;53.330;11.498;2022-07-24T07:25:18;53689.13;;;-147.39;51.73
3524;BME280;1776;53.330;11.498;2022-07-24T07:27:43;53664.53;;;-147.39;51.09
3524;BME280;1776;53.330;11.498;2022-07-24T07:30:09;53646.09;;;-147.39;50.76
3524;BME280;1776;53.330;11.498;2022-07-24T07:32:34;53678.88;;;-147.39;50.62
3524;BME280;1776;53.330;11.498;2022-07-24T07:35:00;53689.13;;;-147.39;50.68
3524;BME280;1776;53.330;11.498;2022-07-24T07:37:25;53654.28;;;-147.39;50.77
3524;BME280;1776;53.330;11.498;2022-07-24T07:39:50;53666.56;;;-147.39;50.35
3524;BME280;1776;53.330;11.498;2022-07-24T07:42:16;53666.56;;;-147.39;50.83
3524;BME280;1776;53.330;11.498;2022-07-24T07:44:41;53693.22;;;-147.39;50.77
3524;BME280;1776;53.330;11.498;2022-07-24T07:47:06;53685.00;;;-147.39;50.96
3524;BME280;1776;53.330;11.498;2022-07-24T07:49:32;53656.34;;;-147.39;50.64
3524;BME280;1776;53.330;11.498;2022-07-24T07:51:57;53656.34;;;-147.39;50.49
3524;BME280;1776;53.330;11.498;2022-07-24T07:54:23;53660.44;;;-147.39;50.29
3524;BME280;1776;53.330;11.498;2022-07-24T07:56:48;53637.91;;;-147.39;49.72
3524;BME280;1776;53.330;11.498;2022-07-24T07:59:14;53603.06;;;-147.39;49.82
3524;BME280;1776;53.330;11.498;2022-07-24T08:01:39;53654.28;;;-147.39;49.64
3524;BME280;1776;53.330;11.498;2022-07-24T08:04:04;53656.34;;;-147.39;48.99
3524;BME280;1776;53.330;11.498;2022-07-24T08:06:29;53619.47;;;-147.39;49.03
3524;BME280;1776;53.330;11.498;2022-07-24T08:08:55;53656.34;;;-147.39;48.73
3524;BME280;1776;53.330;11.498;2022-07-24T08:11:20;53639.94;;;-147.39;48.85
3524;BME280;1776;53.330;11.498;2022-07-24T08:13:46;53609.22;;;-147.39;48.05
3524;BME280;1776;53.330;11.498;2022-07-24T08:16:11;53598.97;;;-147.39;47.70
3524;BME280;1776;53.330;11.498;2022-07-24T08:18:37;53601.03;;;-147.39;47.85
3524;BME280;1776;53.330;11.498;2022-07-24T08:21:02;53603.06;;;-147.39;47.12
3524;BME280;1776;53.330;11.498;2022-07-24T08:23:28;53605.13;;;-147.39;47.00
3524;BME280;1776;53.330;11.498;2022-07-24T08:25:53;53601.03;;;-147.39;47.24
3524;BME280;1776;53.330;11.498;2022-07-24T08:28:18;53586.69;;;-147.39;46.58
3524;BME280;1776;53.330;11.498;2022-07-24T08:30:44;53588.72;;;-147.39;46.34
3524;BME280;1776;53.330;11.498;2022-07-24T08:33:09;53578.50;;;-147.39;46.51
3524;BME280;1776;53.330;11.498;2022-07-24T08:35:35;53560.06;;;-147.39;46.21
3524;BME280;1776;53.330;11.498;2022-07-24T08:38:00;53570.28;;;-147.39;45.81
3524;BME280;1776;53.330;11.498;2022-07-24T08:40:32;53572.34;;;-147.39;45.33
3524;BME280;1776;53.330;11.498;2022-07-24T08:42:59;53555.94;;;-147.39;45.31
3524;BME280;1776;53.330;11.498;2022-07-24T08:45:24;53560.06;;;-147.39;44.55
3524;BME280;1776;53.330;11.498;2022-07-24T08:47:51;53562.09;;;-147.39;44.69
3524;BME280;1776;53.330;11.498;2022-07-24T08:50:16;53553.91;;;-147.39;44.50
3524;BME280;1776;53.330;11.498;2022-07-24T08:52:42;53545.72;;;-147.39;44.30
3524;BME280;1776;53.330;11.498;2022-07-24T08:55:07;53551.84;;;-147.39;44.38
3524;BME280;1776;53.330;11.498;2022-07-24T08:57:33;53574.38;;;-147.39;43.67
3524;BME280;1776;53.330;11.498;2022-07-24T08:59:58;53564.16;;;-147.39;43.86
3524;BME280;1776;53.330;11.498;2022-07-24T09:02:24;53566.19;;;-147.39;43.49
3524;BME280;1776;53.330;11.498;2022-07-24T09:04:50;53601.03;;;-147.39;43.58
3524;BME280;1776;53.330;11.498;2022-07-24T09:07:22;53535.47;;;-147.39;42.30
3524;BME280;1776;53.330;11.498;2022-07-24T09:12:31;53492.44;;;-147.39;42.82
3524;BME280;1776;53.330;11.498;2022-07-24T09:14:58;53535.47;;;-147.39;42.59
3524;BME280;1776;53.330;11.498;2022-07-24T09:17:23;53529.31;;;-147.39;42.07
3524;BME280;1776;53.330;11.498;2022-07-24T09:27:35;53523.19;;;-147.39;41.18
3524;BME280;1776;53.330;11.498;2022-07-24T09:30:01;53529.31;;;-147.39;41.03
3524;BME280;1776;53.330;11.498;2022-07-24T09:32:27;53510.88;;;-147.39;40.20
3524;BME280;1776;53.330;11.498;2022-07-24T09:34:53;53506.78;;;-147.39;40.04
3524;BME280;1776;53.330;11.498;2022-07-24T09:37:19;53500.66;;;-147.39;40.47
3524;BME280;1776;53.330;11.498;2022-07-24T09:39:46;53490.41;;;-147.39;39.97
3524;BME280;1776;53.330;11.498;2022-07-24T09:42:12;53492.44;;;-147.39;40.19
3524;BME280;1776;53.330;11.498;2022-07-24T09:44:38;53494.50;;;-147.39;39.67
3524;BME280;1776;53.330;11.498;2022-07-24T09:47:08;53525.22;;;-147.39;39.43
3524;BME280;1776;53.330;11.498;2022-07-24T09:49:35;53457.63;;;-147.39;39.29
3524;BME280;1776;53.330;11.498;2022-07-24T09:52:10;53467.88;;;-147.39;38.47
3524;BME280;1776;53.330;11.498;2022-07-24T09:54:39;53469.91;;;-147.39;39.22
3524;BME280;1776;53.330;11.498;2022-07-24T09:57:22;53463.78;;;-147.39;38.85
3524;BME280;1776;53.330;11.498;2022-07-24T09:59:55;53435.09;;;-147.39;38.28
3524;BME280;1776;53.330;11.498;2022-07-24T10:02:24;53461.72;;;-147.39;37.77
3524;BME280;1776;53.330;11.498;2022-07-24T10:04:50;53469.91;;;-147.39;37.32
3524;BME280;1776;53.330;11.498;2022-07-24T10:07:19;53463.78;;;-147.39;37.67
3524;BME280;1776;53.330;11.498;2022-07-24T10:09:47;53459.66;;;-147.39;37.69
3524;BME280;1776;53.330;11.498;2022-07-24T10:12:27;53474.00;;;-147.39;37.29
3524;BME280;1776;53.330;11.498;2022-07-24T10:14:55;53437.13;;;-147.39;37.28
3524;BME280;1776;53.330;11.498;2022-07-24T10:20:07;53443.28;;;-147.39;36.83
3524;BME280;1776;53.330;11.498;2022-07-24T10:22:42;53431.00;;;-147.39;37.00
3524;BME280;1776;53.330;11.498;2022-07-24T10:25:12;53441.25;;;-147.39;37.02
3524;BME280;1776;53.330;11.498;2022-07-24T10:27:42;53431.00;;;-147.39;37.13
3524;BME280;1776;53.330;11.498;2022-07-24T10:30:13;53416.66;;;-147.39;36.21
3524;BME280;1776;53.330;11.498;2022-07-24T10:32:38;53410.50;;;-147.39;36.06
3524;BME280;1776;53.330;11.498;2022-07-24T10:51:15;53414.59;;;-147.39;35.70
3524;BME280;1776;53.330;11.498;2022-07-24T10:59:06;53385.94;;;-147.39;35.47
3524;BME280;1776;53.330;11.498;2022-07-24T11:01:49;53381.81;;;-147.39;35.19
3524;BME280;1776;53.330;11.498;2022-07-24T11:06:50;53371.59;;;-147.39;35.15
3524;BME280;1776;53.330;11.498;2022-07-24T11:09:17;53387.97;;;-147.39;35.43
3524;BME280;1776;53.330;11.498;2022-07-24T11:20:04;53359.28;;;-147.39;34.83
3524;BME280;1776;53.330;11.498;2022-07-24T11:25:12;53387.97;;;-147.39;35.51
3524;BME280;1776;53.330;11.498;2022-07-24T11:27:56;53394.13;;;-147.39;35.13
3524;BME280;1776;53.330;11.498;2022-07-24T11:30:22;53383.88;;;-147.39;35.65
3524;BME280;1776;53.330;11.498;2022-07-24T11:32:48;53377.72;;;-147.39;34.77
3524;BME280;1776;53.330;11.498;2022-07-24T11:35:14;53361.34;;;-147.39;35.25
3524;BME280;1776;53.330;11.498;2022-07-24T11:37:40;53361.34;;;-147.39;35.43
3524;BME280;1776;53.330;11.498;2022-07-24T11:40:07;53357.25;;;-147.39;35.08
3524;BME280;1776;53.330;11.498;2022-07-24T11:42:34;53361.34;;;-147.39;34.68
3524;BME280;1776;53.330;11.498;2022-07-24T11:45:00;53375.69;;;-147.39;34.77
3524;BME280;1776;53.330;11.498;2022-07-24T11:47:27;53398.22;;;-147.39;34.36
3524;BME280;1776;53.330;11.498;2022-07-24T11:49:55;53363.41;;;-147.39;34.65
3524;BME280;1776;53.330;11.498;2022-07-24T11:52:26;53369.53;;;-147.39;33.92
3524;BME280;1776;53.330;11.498;2022-07-24T11:54:54;53349.06;;;-147.39;34.21
3524;BME280;1776;53.330;11.498;2022-07-24T11:57:26;53340.88;;;-147.39;33.53
3524;BME280;1776;53.330;11.498;2022-07-24T11:59:53;53332.66;;;-147.39;34.20
3524;BME280;1776;53.330;11.498;2022-07-24T12:02:20;53349.06;;;-147.39;34.20
3524;BME280;1776;53.330;11.498;2022-07-24T12:04:46;53496.53;;;-147.39;33.85
3524;BME280;1776;53.330;11.498;2022-07-24T12:07:24;53355.19;;;-147.39;33.31
3524;BME280;1776;53.330;11.498;2022-07-24T12:09:58;53355.19;;;-147.39;33.44
3524;BME280;1776;53.330;11.498;2022-07-24T12:12:32;53332.66;;;-147.39;33.01
3524;BME280;1776;53.330;11.498;2022-07-24T12:17:58;53375.69;;;-147.39;33.53
3524;BME280;1776;53.330;11.498;2022-07-24T12:22:52;53437.13;;;-147.39;33.87
3524;BME280;1776;53.330;11.498;2022-07-24T12:25:18;53367.50;;;-147.39;33.66
3524;BME280;1776;53.330;11.498;2022-07-24T12:27:45;53355.19;;;-147.39;34.03
3524;BME280;1776;53.330;11.498;2022-07-24T12:30:28;53336.75;;;-147.39;33.70
3524;BME280;1776;53.330;11.498;2022-07-24T12:32:56;53344.97;;;-147.39;33.27
3524;BME280;1776;53.330;11.498;2022-07-24T12:35:22;53328.56;;;-147.39;32.66
3524;BME280;1776;53.330;11.498;2022-07-24T12:37:48;53344.97;;;-147.39;32.96
3524;BME280;1776;53.330;11.498;2022-07-24T12:40:30;53324.47;;;-147.39;32.57
3524;BME280;1776;53.330;11.498;2022-07-24T12:42:57;53322.44;;;-147.39;32.77
3524;BME280;1776;53.330;11.498;2022-07-24T12:45:22;53320.38;;;-147.39;32.38
3524;BME280;1776;53.330;11.498;2022-07-24T12:50:31;53306.03;;;-147.39;32.72
3524;BME280;1776;53.330;11.498;2022-07-24T12:53:08;53336.75;;;-147.39;32.24
3524;BME280;1776;53.330;11.498;2022-07-24T12:55:34;53265.06;;;-147.39;32.53
3524;BME280;1776;53.330;11.498;2022-07-24T12:58:02;53265.06;;;-147.39;31.77
3524;BME280;1776;53.330;11.498;2022-07-24T13:00:28;53293.75;;;-147.39;31.86
3524;BME280;1776;53.330;11.498;2022-07-24T13:02:53;53279.41;;;-147.39;31.20
3524;BME280;1776;53.330;11.498;2022-07-24T13:05:40;53301.94;;;-147.39;30.71
3524;BME280;1776;53.330;11.498;2022-07-24T13:08:07;53322.44;;;-147.39;31.06
3524;BME280;1776;53.330;11.498;2022-07-24T13:10:33;53297.84;;;-147.39;30.91
3524;BME280;1776;53.330;11.498;2022-07-24T13:12:58;53293.75;;;-147.39;31.13
3524;BME280;1776;53.330;11.498;2022-07-24T13:15:23;53326.53;;;-147.39;30.72
3524;BME280;1776;53.330;11.498;2022-07-24T13:17:49;53265.06;;;-147.39;30.37
3524;BME280;1776;53.330;11.498;2022-07-24T13:20:14;53295.78;;;-147.39;30.69
3524;BME280;1776;53.330;11.498;2022-07-24T13:22:39;53297.84;;;-147.39;31.11
3524;BME280;1776;53.330;11.498;2022-07-24T13:25:05;53299.88;;;-147.39;31.00
3524;BME280;1776;53.330;11.498;2022-07-24T13:27:30;53310.13;;;-147.39;30.68
3524;BME280;1776;53.330;11.498;2022-07-24T13:29:55;53273.25;;;-147.39;30.50
3524;BME280;1776;53.330;11.498;2022-07-24T13:32:21;53308.09;;;-147.39;30.80
3524;BME280;1776;53.330;11.498;2022-07-24T13:34:46;53301.94;;;-147.39;30.34
3524;BME280;1776;53.330;11.498;2022-07-24T13:37:11;53281.47;;;-147.39;30.45
3524;BME280;1776;53.330;11.498;2022-07-24T13:39:37;53275.31;;;-147.39;30.58
3524;BME280;1776;53.330;11.498;2022-07-24T13:42:05;53263.03;;;-147.39;29.86